Noble, Missouri
Current Conditions -  °F | °C
As of 2:53 AM on Saturday 22 Nov 2014 (Local Time) from KBPK Reporting Station
Haze Haze  
Wind Chill: 39°   Ceiling: Unl
Heat Index: 42°   Visibility: 4mi
Dew Point: 41°   Wind: 5mph
Humidity: 96%   Direction: 120°ESE
Pressure: 30.18"   Gusts: NA
Location:  36.75°N, 92.57°W
Report Text: KBPK 220853Z AUTO 12004KT 4SM BR SCT044 06/05 A3018 RMK AO2 SLP223 T00560050 56010
Loading
Personal Weather Stations






























Interactive Weather Map New forecast layout! Learn more

10-Day Weather Forecast

Advertisements
Track Severe Weather on mobile